sensor_id;sensor_type;location;lat;lon;timestamp;pressure;altitude;pressure_sealevel;temperature;humidity
15568;BME280;7885;42.596;23.044;2022-08-24T00:00:52;92795.56;;;20.19;100.00
15568;BME280;7885;42.596;23.044;2022-08-24T00:03:19;92794.34;;;20.20;100.00
15568;BME280;7885;42.596;23.044;2022-08-24T00:05:47;92791.88;;;20.22;100.00
15568;BME280;7885;42.596;23.044;2022-08-24T00:08:14;92793.41;;;20.23;100.00
15568;BME280;7885;42.596;23.044;2022-08-24T00:10:44;92794.06;;;20.27;100.00
15568;BME280;7885;42.596;23.044;2022-08-24T00:13:11;92794.66;;;20.31;100.00
15568;BME280;7885;42.596;23.044;2022-08-24T00:15:38;92773.13;;;20.17;100.00
15568;BME280;7885;42.596;23.044;2022-08-24T00:18:05;92793.16;;;20.30;100.00
15568;BME280;7885;42.596;23.044;2022-08-24T00:20:32;92788.06;;;20.29;100.00
15568;BME280;7885;42.596;23.044;2022-08-24T00:23:00;92797.91;;;20.30;100.00
15568;BME280;7885;42.596;23.044;2022-08-24T00:25:27;92796.22;;;20.32;100.00
15568;BME280;7885;42.596;23.044;2022-08-24T00:27:54;92743.31;;;19.94;100.00
15568;BME280;7885;42.596;23.044;2022-08-24T00:30:21;92786.97;;;20.26;100.00
15568;BME280;7885;42.596;23.044;2022-08-24T00:32:48;92792.22;;;20.33;100.00
15568;BME280;7885;42.596;23.044;2022-08-24T00:35:16;92803.28;;;20.33;100.00
15568;BME280;7885;42.596;23.044;2022-08-24T00:37:45;92796.22;;;20.32;100.00
15568;BME280;7885;42.596;23.044;2022-08-24T00:40:16;92801.56;;;20.27;100.00
15568;BME280;7885;42.596;23.044;2022-08-24T00:42:43;92799.13;;;20.29;100.00
15568;BME280;7885;42.596;23.044;2022-08-24T00:45:12;92783.88;;;20.24;100.00
15568;BME280;7885;42.596;23.044;2022-08-24T00:47:42;92788.81;;;20.20;100.00
15568;BME280;7885;42.596;23.044;2022-08-24T00:50:13;92802.19;;;20.31;100.00
15568;BME280;7885;42.596;23.044;2022-08-24T00:52:46;92798.47;;;20.25;100.00
15568;BME280;7885;42.596;23.044;2022-08-24T00:55:18;92799.59;;;20.27;100.00
15568;BME280;7885;42.596;23.044;2022-08-24T00:57:48;92801.72;;;20.23;100.00
15568;BME280;7885;42.596;23.044;2022-08-24T01:00:19;92794.94;;;20.24;100.00
15568;BME280;7885;42.596;23.044;2022-08-24T01:02:48;92794.94;;;20.24;100.00
15568;BME280;7885;42.596;23.044;2022-08-24T01:05:16;92797.13;;;20.29;100.00
15568;BME280;7885;42.596;23.044;2022-08-24T01:07:44;92797.69;;;20.24;100.00
15568;BME280;7885;42.596;23.044;2022-08-24T01:10:14;92805.13;;;20.27;100.00
15568;BME280;7885;42.596;23.044;2022-08-24T01:12:46;92767.44;;;20.02;100.00
15568;BME280;7885;42.596;23.044;2022-08-24T01:15:14;92808.97;;;20.30;100.00
15568;BME280;7885;42.596;23.044;2022-08-24T01:17:42;92807.22;;;20.23;100.00
15568;BME280;7885;42.596;23.044;2022-08-24T01:20:26;92798.63;;;20.21;100.00
15568;BME280;7885;42.596;23.044;2022-08-24T01:23:00;92807.81;;;20.18;100.00
15568;BME280;7885;42.596;23.044;2022-08-24T01:25:30;92805.06;;;20.18;100.00
15568;BME280;7885;42.596;23.044;2022-08-24T01:28:04;92804.75;;;20.16;100.00
15568;BME280;7885;42.596;23.044;2022-08-24T01:30:32;92813.78;;;20.07;100.00
15568;BME280;7885;42.596;23.044;2022-08-24T01:33:02;92811.50;;;20.06;100.00
15568;BME280;7885;42.596;23.044;2022-08-24T01:35:30;92810.88;;;20.02;100.00
15568;BME280;7885;42.596;23.044;2022-08-24T01:37:59;92818.22;;;19.96;100.00
15568;BME280;7885;42.596;23.044;2022-08-24T01:40:32;92780.69;;;19.67;100.00
15568;BME280;7885;42.596;23.044;2022-08-24T01:43:02;92822.47;;;19.88;100.00
15568;BME280;7885;42.596;23.044;2022-08-24T01:45:31;92828.91;;;19.85;100.00
15568;BME280;7885;42.596;23.044;2022-08-24T01:47:57;92805.84;;;19.70;100.00
15568;BME280;7885;42.596;23.044;2022-08-24T01:50:25;92823.97;;;19.80;100.00
15568;BME280;7885;42.596;23.044;2022-08-24T01:52:54;92822.28;;;19.73;100.00
15568;BME280;7885;42.596;23.044;2022-08-24T01:55:23;92816.44;;;19.71;100.00
15568;BME280;7885;42.596;23.044;2022-08-24T01:57:51;92833.94;;;19.77;100.00
15568;BME280;7885;42.596;23.044;2022-08-24T02:00:18;92830.13;;;19.75;100.00
15568;BME280;7885;42.596;23.044;2022-08-24T02:02:45;92824.59;;;19.75;100.00
15568;BME280;7885;42.596;23.044;2022-08-24T02:05:14;92804.13;;;19.63;100.00
15568;BME280;7885;42.596;23.044;2022-08-24T02:07:41;92830.75;;;19.79;100.00
15568;BME280;7885;42.596;23.044;2022-08-24T02:10:10;92825.22;;;19.79;100.00
15568;BME280;7885;42.596;23.044;2022-08-24T02:12:40;92825.97;;;19.79;100.00
15568;BME280;7885;42.596;23.044;2022-08-24T02:15:09;92792.94;;;19.57;100.00
15568;BME280;7885;42.596;23.044;2022-08-24T02:17:37;92828.28;;;19.81;100.00
15568;BME280;7885;42.596;23.044;2022-08-24T02:20:06;92822.59;;;19.75;100.00
15568;BME280;7885;42.596;23.044;2022-08-24T02:22:33;92825.97;;;19.79;100.00
15568;BME280;7885;42.596;23.044;2022-08-24T02:25:00;92828.88;;;19.76;100.00
15568;BME280;7885;42.596;23.044;2022-08-24T02:27:26;92835.63;;;19.75;100.00
15568;BME280;7885;42.596;23.044;2022-08-24T02:29:53;92835.63;;;19.75;100.00
15568;BME280;7885;42.596;23.044;2022-08-24T02:32:21;92834.72;;;19.78;100.00
15568;BME280;7885;42.596;23.044;2022-08-24T02:34:48;92827.78;;;19.73;100.00
15568;BME280;7885;42.596;23.044;2022-08-24T02:37:15;92837.16;;;19.76;100.00
15568;BME280;7885;42.596;23.044;2022-08-24T02:39:43;92841.47;;;19.77;100.00
15568;BME280;7885;42.596;23.044;2022-08-24T02:42:10;92837.78;;;19.80;100.00
15568;BME280;7885;42.596;23.044;2022-08-24T02:44:36;92849.94;;;19.82;100.00
15568;BME280;7885;42.596;23.044;2022-08-24T02:47:03;92837.94;;;19.76;100.00
15568;BME280;7885;42.596;23.044;2022-08-24T02:49:31;92841.28;;;19.71;100.00
15568;BME280;7885;42.596;23.044;2022-08-24T02:51:58;92860.50;;;19.84;100.00
15568;BME280;7885;42.596;23.044;2022-08-24T02:54:25;92858.97;;;19.83;100.00
15568;BME280;7885;42.596;23.044;2022-08-24T02:56:52;92850.66;;;19.74;100.00
15568;BME280;7885;42.596;23.044;2022-08-24T02:59:20;92858.03;;;19.77;100.00
15568;BME280;7885;42.596;23.044;2022-08-24T03:01:47;92866.81;;;19.84;100.00
15568;BME280;7885;42.596;23.044;2022-08-24T03:04:14;92842.34;;;19.64;100.00
15568;BME280;7885;42.596;23.044;2022-08-24T03:06:42;92879.53;;;19.82;100.00
15568;BME280;7885;42.596;23.044;2022-08-24T03:09:09;92884.16;;;19.85;100.00
15568;BME280;7885;42.596;23.044;2022-08-24T03:11:36;92884.16;;;19.85;100.00
15568;BME280;7885;42.596;23.044;2022-08-24T03:14:03;92863.25;;;19.75;100.00
15568;BME280;7885;42.596;23.044;2022-08-24T03:16:30;92846.94;;;19.67;100.00
15568;BME280;7885;42.596;23.044;2022-08-24T03:18:57;92852.34;;;19.71;100.00
15568;BME280;7885;42.596;23.044;2022-08-24T03:21:25;92853.56;;;19.70;100.00
15568;BME280;7885;42.596;23.044;2022-08-24T03:23:53;92885.09;;;19.91;100.00
15568;BME280;7885;42.596;23.044;2022-08-24T03:26:20;92857.41;;;19.73;100.00
15568;BME280;7885;42.596;23.044;2022-08-24T03:28:47;92872.19;;;19.88;100.00
15568;BME280;7885;42.596;23.044;2022-08-24T03:31:14;92872.84;;;19.92;100.00
15568;BME280;7885;42.596;23.044;2022-08-24T03:33:41;92863.88;;;19.79;100.00
15568;BME280;7885;42.596;23.044;2022-08-24T03:36:08;92878.31;;;19.83;100.00
15568;BME280;7885;42.596;23.044;2022-08-24T03:38:34;92860.44;;;19.65;100.00
15568;BME280;7885;42.596;23.044;2022-08-24T03:41:03;92869.34;;;19.70;100.00
15568;BME280;7885;42.596;23.044;2022-08-24T03:43:29;92871.16;;;19.63;100.00
15568;BME280;7885;42.596;23.044;2022-08-24T03:46:12;92848.00;;;19.39;100.00
15568;BME280;7885;42.596;23.044;2022-08-24T03:48:40;92882.03;;;19.58;100.00
15568;BME280;7885;42.596;23.044;2022-08-24T03:51:11;92854.06;;;19.25;100.00
15568;BME280;7885;42.596;23.044;2022-08-24T03:53:38;92891.03;;;19.49;100.00
15568;BME280;7885;42.596;23.044;2022-08-24T03:56:07;92880.34;;;19.39;100.00
15568;BME280;7885;42.596;23.044;2022-08-24T03:58:34;92854.31;;;19.18;100.00
15568;BME280;7885;42.596;23.044;2022-08-24T04:01:02;92894.69;;;19.46;100.00
15568;BME280;7885;42.596;23.044;2022-08-24T04:03:28;92891.94;;;19.46;100.00
15568;BME280;7885;42.596;23.044;2022-08-24T04:05:55;92897.44;;;19.46;100.00
15568;BME280;7885;42.596;23.044;2022-08-24T04:08:22;92895.13;;;19.45;100.00
15568;BME280;7885;42.596;23.044;2022-08-24T04:10:49;92890.75;;;19.35;100.00
15568;BME280;7885;42.596;23.044;2022-08-24T04:13:17;92892.06;;;19.43;100.00
15568;BME280;7885;42.596;23.044;2022-08-24T04:15:44;92887.53;;;19.36;100.00
15568;BME280;7885;42.596;23.044;2022-08-24T04:18:11;92889.09;;;19.37;100.00
15568;BME280;7885;42.596;23.044;2022-08-24T04:20:40;92899.91;;;19.44;100.00
15568;BME280;7885;42.596;23.044;2022-08-24T04:23:09;92899.22;;;19.40;100.00
15568;BME280;7885;42.596;23.044;2022-08-24T04:25:40;92868.09;;;19.18;100.00
15568;BME280;7885;42.596;23.044;2022-08-24T04:28:07;92902.56;;;19.35;100.00
15568;BME280;7885;42.596;23.044;2022-08-24T04:30:38;92902.56;;;19.35;100.00
15568;BME280;7885;42.596;23.044;2022-08-24T04:33:05;92884.91;;;19.33;100.00
15568;BME280;7885;42.596;23.044;2022-08-24T04:35:36;92897.81;;;19.36;100.00
15568;BME280;7885;42.596;23.044;2022-08-24T04:38:03;92883.72;;;19.34;100.00
15568;BME280;7885;42.596;23.044;2022-08-24T04:40:30;92894.56;;;19.50;100.00
15568;BME280;7885;42.596;23.044;2022-08-24T04:42:57;92860.22;;;19.29;100.00
15568;BME280;7885;42.596;23.044;2022-08-24T04:45:24;92904.03;;;19.71;100.00
15568;BME280;7885;42.596;23.044;2022-08-24T04:47:52;92907.16;;;19.82;100.00
15568;BME280;7885;42.596;23.044;2022-08-24T04:50:19;92895.22;;;19.85;100.00
15568;BME280;7885;42.596;23.044;2022-08-24T04:52:46;92908.00;;;20.00;100.00
15568;BME280;7885;42.596;23.044;2022-08-24T04:55:12;92918.91;;;20.04;100.00
15568;BME280;7885;42.596;23.044;2022-08-24T04:57:40;92918.78;;;20.07;100.00
15568;BME280;7885;42.596;23.044;2022-08-24T05:00:07;92914.81;;;20.17;100.00
15568;BME280;7885;42.596;23.044;2022-08-24T05:02:35;92915.94;;;20.20;100.00
15568;BME280;7885;42.596;23.044;2022-08-24T05:05:06;92914.09;;;20.26;100.00
15568;BME280;7885;42.596;23.044;2022-08-24T05:07:33;92908.63;;;20.35;100.00
15568;BME280;7885;42.596;23.044;2022-08-24T05:10:00;92909.09;;;20.43;100.00
15568;BME280;7885;42.596;23.044;2022-08-24T05:12:27;92897.59;;;20.44;100.00
15568;BME280;7885;42.596;23.044;2022-08-24T05:14:54;92907.16;;;20.61;100.00
15568;BME280;7885;42.596;23.044;2022-08-24T05:17:21;92865.03;;;20.48;100.00
15568;BME280;7885;42.596;23.044;2022-08-24T05:19:47;92903.34;;;20.77;100.00
15568;BME280;7885;42.596;23.044;2022-08-24T05:22:16;92902.88;;;20.88;100.00
15568;BME280;7885;42.596;23.044;2022-08-24T05:24:43;92880.44;;;20.77;100.00
15568;BME280;7885;42.596;23.044;2022-08-24T05:27:10;92906.75;;;20.99;100.00
15568;BME280;7885;42.596;23.044;2022-08-24T05:29:37;92905.84;;;21.11;100.00
15568;BME280;7885;42.596;23.044;2022-08-24T05:32:04;92894.00;;;21.11;100.00
15568;BME280;7885;42.596;23.044;2022-08-24T05:34:31;92898.28;;;21.39;100.00
15568;BME280;7885;42.596;23.044;2022-08-24T05:36:58;92840.19;;;21.21;99.61
15568;BME280;7885;42.596;23.044;2022-08-24T05:39:26;92889.16;;;21.66;98.18
15568;BME280;7885;42.596;23.044;2022-08-24T05:41:55;92901.59;;;21.89;98.08
15568;BME280;7885;42.596;23.044;2022-08-24T05:44:24;92895.13;;;21.92;95.06
15568;BME280;7885;42.596;23.044;2022-08-24T05:46:51;92902.63;;;22.09;94.64
15568;BME280;7885;42.596;23.044;2022-08-24T05:49:18;92894.31;;;22.09;94.10
15568;BME280;7885;42.596;23.044;2022-08-24T05:51:45;92897.31;;;22.21;92.88
15568;BME280;7885;42.596;23.044;2022-08-24T05:54:12;92897.13;;;22.33;92.06
15568;BME280;7885;42.596;23.044;2022-08-24T05:56:41;92898.13;;;22.45;92.08
15568;BME280;7885;42.596;23.044;2022-08-24T05:59:09;92906.84;;;22.61;91.99
15568;BME280;7885;42.596;23.044;2022-08-24T06:01:36;92899.69;;;22.79;89.85
15568;BME280;7885;42.596;23.044;2022-08-24T06:04:04;92879.78;;;22.80;89.87
15568;BME280;7885;42.596;23.044;2022-08-24T06:06:30;92892.47;;;22.96;89.86
15568;BME280;7885;42.596;23.044;2022-08-24T06:12:35;92891.72;;;23.34;87.54
15568;BME280;7885;42.596;23.044;2022-08-24T06:15:03;92898.09;;;23.25;84.81
15568;BME280;7885;42.596;23.044;2022-08-24T06:17:30;92896.97;;;23.32;86.66
15568;BME280;7885;42.596;23.044;2022-08-24T06:19:57;92875.56;;;23.47;86.19
15568;BME280;7885;42.596;23.044;2022-08-24T06:22:23;92886.97;;;23.63;86.17
15568;BME280;7885;42.596;23.044;2022-08-24T06:24:50;92887.19;;;23.75;85.92
15568;BME280;7885;42.596;23.044;2022-08-24T06:27:36;92880.75;;;23.83;84.61
15568;BME280;7885;42.596;23.044;2022-08-24T06:30:06;92888.69;;;23.90;84.48
15568;BME280;7885;42.596;23.044;2022-08-24T06:32:34;92894.38;;;23.96;83.13
15568;BME280;7885;42.596;23.044;2022-08-24T06:35:01;92885.91;;;24.05;84.06
15568;BME280;7885;42.596;23.044;2022-08-24T06:37:29;92857.34;;;23.90;83.29
15568;BME280;7885;42.596;23.044;2022-08-24T06:39:57;92897.41;;;24.27;83.61
15568;BME280;7885;42.596;23.044;2022-08-24T06:42:24;92893.75;;;24.36;82.89
15568;BME280;7885;42.596;23.044;2022-08-24T06:44:54;92887.59;;;24.46;81.44
15568;BME280;7885;42.596;23.044;2022-08-24T06:47:21;92897.50;;;24.47;79.02
15568;BME280;7885;42.596;23.044;2022-08-24T06:49:48;92886.84;;;24.31;76.21
15568;BME280;7885;42.596;23.044;2022-08-24T06:52:15;92890.34;;;24.26;77.93
15568;BME280;7885;42.596;23.044;2022-08-24T06:54:42;92896.28;;;24.19;78.30
15568;BME280;7885;42.596;23.044;2022-08-24T06:57:08;92903.75;;;24.28;78.25
15568;BME280;7885;42.596;23.044;2022-08-24T06:59:35;92910.66;;;24.32;78.57
15568;BME280;7885;42.596;23.044;2022-08-24T07:02:03;92913.06;;;24.25;78.27
15568;BME280;7885;42.596;23.044;2022-08-24T07:04:30;92917.53;;;24.07;80.29
15568;BME280;7885;42.596;23.044;2022-08-24T07:06:57;92921.78;;;24.18;78.83
15568;BME280;7885;42.596;23.044;2022-08-24T07:09:25;92907.22;;;24.23;77.01
15568;BME280;7885;42.596;23.044;2022-08-24T07:11:52;92918.53;;;24.34;78.29
15568;BME280;7885;42.596;23.044;2022-08-24T07:14:18;92858.50;;;23.98;77.05
15568;BME280;7885;42.596;23.044;2022-08-24T07:16:46;92920.59;;;24.53;77.62
15568;BME280;7885;42.596;23.044;2022-08-24T07:19:14;92911.81;;;24.40;77.32
15568;BME280;7885;42.596;23.044;2022-08-24T07:21:41;92921.38;;;24.54;77.18
15568;BME280;7885;42.596;23.044;2022-08-24T07:24:08;92927.94;;;24.71;76.88
15568;BME280;7885;42.596;23.044;2022-08-24T07:26:36;92934.28;;;24.72;76.35
15568;BME280;7885;42.596;23.044;2022-08-24T07:29:05;92930.72;;;24.86;76.30
15568;BME280;7885;42.596;23.044;2022-08-24T07:31:33;92931.09;;;24.79;75.86
15568;BME280;7885;42.596;23.044;2022-08-24T07:34:00;92940.13;;;24.74;74.50
15568;BME280;7885;42.596;23.044;2022-08-24T07:36:29;92932.59;;;24.80;74.46
15568;BME280;7885;42.596;23.044;2022-08-24T07:38:56;92926.41;;;24.85;74.46
15568;BME280;7885;42.596;23.044;2022-08-24T07:41:23;92931.06;;;24.93;75.24
15568;BME280;7885;42.596;23.044;2022-08-24T07:43:51;92890.50;;;24.72;75.12
15568;BME280;7885;42.596;23.044;2022-08-24T07:46:18;92894.91;;;24.79;75.37
15568;BME280;7885;42.596;23.044;2022-08-24T07:48:45;92938.47;;;25.17;73.47
15568;BME280;7885;42.596;23.044;2022-08-24T07:51:14;92897.13;;;25.09;74.00
15568;BME280;7885;42.596;23.044;2022-08-24T07:53:42;92934.75;;;25.66;73.75
15568;BME280;7885;42.596;23.044;2022-08-24T07:56:11;92929.56;;;25.99;71.72
15568;BME280;7885;42.596;23.044;2022-08-24T07:58:38;92930.81;;;26.24;71.42
15568;BME280;7885;42.596;23.044;2022-08-24T08:01:05;92916.72;;;26.38;71.00
15568;BME280;7885;42.596;23.044;2022-08-24T08:03:34;92927.53;;;26.56;69.36
15568;BME280;7885;42.596;23.044;2022-08-24T08:06:04;92928.38;;;26.68;68.33
15568;BME280;7885;42.596;23.044;2022-08-24T08:08:33;92926.31;;;27.00;69.92
15568;BME280;7885;42.596;23.044;2022-08-24T08:11:02;92912.63;;;27.02;67.26
15568;BME280;7885;42.596;23.044;2022-08-24T08:13:29;92906.09;;;27.16;68.09
15568;BME280;7885;42.596;23.044;2022-08-24T08:19:18;92910.75;;;27.41;65.10
15568;BME280;7885;42.596;23.044;2022-08-24T08:21:47;92913.38;;;27.50;64.72
15568;BME280;7885;42.596;23.044;2022-08-24T08:24:31;92876.72;;;27.37;65.72
15568;BME280;7885;42.596;23.044;2022-08-24T08:27:00;92913.72;;;27.75;65.75
15568;BME280;7885;42.596;23.044;2022-08-24T08:29:27;92915.03;;;28.01;64.35
15568;BME280;7885;42.596;23.044;2022-08-24T08:31:56;92924.25;;;28.24;62.65
15568;BME280;7885;42.596;23.044;2022-08-24T08:34:23;92919.19;;;28.50;61.90
15568;BME280;7885;42.596;23.044;2022-08-24T08:36:50;92909.22;;;28.55;61.11
15568;BME280;7885;42.596;23.044;2022-08-24T08:39:18;92889.91;;;28.57;61.40
15568;BME280;7885;42.596;23.044;2022-08-24T08:41:55;92903.38;;;28.92;60.52
15568;BME280;7885;42.596;23.044;2022-08-24T08:44:37;92882.59;;;29.50;59.51
15568;BME280;7885;42.596;23.044;2022-08-24T08:47:21;92893.63;;;30.30;57.36
15568;BME280;7885;42.596;23.044;2022-08-24T08:50:12;92904.50;;;31.04;55.62
15568;BME280;7885;42.596;23.044;2022-08-24T08:55:47;92899.22;;;30.95;54.55
15568;BME280;7885;42.596;23.044;2022-08-24T08:58:27;92906.25;;;31.08;54.69
15568;BME280;7885;42.596;23.044;2022-08-24T09:01:09;92911.31;;;30.85;55.94
15568;BME280;7885;42.596;23.044;2022-08-24T09:04:02;92914.50;;;30.70;55.65
15568;BME280;7885;42.596;23.044;2022-08-24T09:06:43;92914.03;;;30.96;55.12
15568;BME280;7885;42.596;23.044;2022-08-24T09:09:40;92873.09;;;30.46;54.18
15568;BME280;7885;42.596;23.044;2022-08-24T09:12:16;92925.78;;;31.24;55.37
15568;BME280;7885;42.596;23.044;2022-08-24T09:15:06;92930.28;;;31.81;54.51
15568;BME280;7885;42.596;23.044;2022-08-24T09:17:53;92911.41;;;32.32;52.60
15568;BME280;7885;42.596;23.044;2022-08-24T09:20:46;92897.81;;;32.49;52.58
15568;BME280;7885;42.596;23.044;2022-08-24T09:23:19;92922.16;;;33.29;51.37
15568;BME280;7885;42.596;23.044;2022-08-24T09:25:51;92908.25;;;33.97;49.34
15568;BME280;7885;42.596;23.044;2022-08-24T09:28:38;92905.88;;;34.69;48.23
15568;BME280;7885;42.596;23.044;2022-08-24T09:31:24;92908.31;;;35.06;47.29
15568;BME280;7885;42.596;23.044;2022-08-24T09:34:06;92903.94;;;35.46;45.81
15568;BME280;7885;42.596;23.044;2022-08-24T09:36:45;92866.66;;;34.65;43.76
15568;BME280;7885;42.596;23.044;2022-08-24T09:50:10;92870.56;;;34.83;45.79
15568;BME280;7885;42.596;23.044;2022-08-24T09:53:25;92875.81;;;35.48;46.51
15568;BME280;7885;42.596;23.044;2022-08-24T09:56:07;92833.75;;;35.53;45.28
15568;BME280;7885;42.596;23.044;2022-08-24T09:58:46;92850.38;;;36.35;42.72
15568;BME280;7885;42.596;23.044;2022-08-24T10:01:21;92843.97;;;36.50;41.58
15568;BME280;7885;42.596;23.044;2022-08-24T10:04:05;92848.00;;;36.77;43.82
15568;BME280;7885;42.596;23.044;2022-08-24T10:06:47;92841.31;;;36.44;40.24
15568;BME280;7885;42.596;23.044;2022-08-24T10:09:51;92851.00;;;36.06;42.94
15568;BME280;7885;42.596;23.044;2022-08-24T10:12:37;92841.25;;;35.42;42.99
15568;BME280;7885;42.596;23.044;2022-08-24T10:15:10;92837.16;;;35.51;44.15
15568;BME280;7885;42.596;23.044;2022-08-24T10:17:46;92839.22;;;35.22;41.89
15568;BME280;7885;42.596;23.044;2022-08-24T10:20:20;92787.75;;;35.03;43.78
15568;BME280;7885;42.596;23.044;2022-08-24T10:23:13;92839.03;;;35.84;42.51
15568;BME280;7885;42.596;23.044;2022-08-24T10:25:51;92805.34;;;36.09;43.20
15568;BME280;7885;42.596;23.044;2022-08-24T10:28:51;92822.66;;;35.98;40.92
15568;BME280;7885;42.596;23.044;2022-08-24T10:38:27;92825.31;;;35.96;43.47
15568;BME280;7885;42.596;23.044;2022-08-24T10:44:24;92841.69;;;36.48;39.78
15568;BME280;7885;42.596;23.044;2022-08-24T10:46:57;92809.75;;;36.40;38.51
15568;BME280;7885;42.596;23.044;2022-08-24T10:55:54;92835.69;;;36.60;40.70
15568;BME280;7885;42.596;23.044;2022-08-24T10:58:36;92832.63;;;36.50;39.14
15568;BME280;7885;42.596;23.044;2022-08-24T11:01:21;92775.16;;;36.27;41.16
15568;BME280;7885;42.596;23.044;2022-08-24T11:03:51;92831.47;;;36.38;39.59
15568;BME280;7885;42.596;23.044;2022-08-24T11:06:20;92831.16;;;35.98;44.04
15568;BME280;7885;42.596;23.044;2022-08-24T11:08:54;92829.66;;;36.05;40.67
15568;BME280;7885;42.596;23.044;2022-08-24T11:11:29;92828.69;;;35.94;40.83
15568;BME280;7885;42.596;23.044;2022-08-24T11:13:59;92825.25;;;35.88;41.44
15568;BME280;7885;42.596;23.044;2022-08-24T11:16:30;92820.16;;;35.51;39.22
15568;BME280;7885;42.596;23.044;2022-08-24T11:18:58;92816.44;;;35.28;42.10
15568;BME280;7885;42.596;23.044;2022-08-24T11:21:48;92810.28;;;35.37;43.81
15568;BME280;7885;42.596;23.044;2022-08-24T11:24:30;92761.22;;;34.78;41.22
15568;BME280;7885;42.596;23.044;2022-08-24T11:30:28;92804.31;;;34.50;42.82
15568;BME280;7885;42.596;23.044;2022-08-24T11:32:57;92805.84;;;34.72;44.92
15568;BME280;7885;42.596;23.044;2022-08-24T11:35:28;92803.94;;;34.95;44.24
15568;BME280;7885;42.596;23.044;2022-08-24T11:38:06;92802.97;;;35.13;45.21
15568;BME280;7885;42.596;23.044;2022-08-24T11:40:41;92785.19;;;34.84;41.67
15568;BME280;7885;42.596;23.044;2022-08-24T11:43:17;92799.69;;;34.81;42.64
15568;BME280;7885;42.596;23.044;2022-08-24T11:45:58;92802.44;;;34.53;42.14
15568;BME280;7885;42.596;23.044;2022-08-24T11:48:34;92764.88;;;33.90;43.16
15568;BME280;7885;42.596;23.044;2022-08-24T11:51:11;92795.97;;;34.11;44.16
15568;BME280;7885;42.596;23.044;2022-08-24T11:53:58;92779.13;;;34.18;46.47
15568;BME280;7885;42.596;23.044;2022-08-24T11:56:35;92791.34;;;34.55;45.55
15568;BME280;7885;42.596;23.044;2022-08-24T11:59:08;92791.63;;;34.23;42.62
15568;BME280;7885;42.596;23.044;2022-08-24T12:01:43;92790.16;;;33.75;44.29
15568;BME280;7885;42.596;23.044;2022-08-24T12:04:32;92791.69;;;33.63;48.82
15568;BME280;7885;42.596;23.044;2022-08-24T12:07:09;92782.88;;;33.53;45.06
15568;BME280;7885;42.596;23.044;2022-08-24T12:09:56;92708.09;;;32.99;46.54
15568;BME280;7885;42.596;23.044;2022-08-24T12:12:32;92786.91;;;33.44;47.39
15568;BME280;7885;42.596;23.044;2022-08-24T12:15:04;92771.25;;;33.57;48.18
15568;BME280;7885;42.596;23.044;2022-08-24T12:17:37;92772.94;;;33.86;49.69
15568;BME280;7885;42.596;23.044;2022-08-24T12:20:16;92776.78;;;33.75;47.99
15568;BME280;7885;42.596;23.044;2022-08-24T12:26:09;92776.34;;;34.05;46.13
15568;BME280;7885;42.596;23.044;2022-08-24T12:28:39;92783.00;;;33.94;46.63
15568;BME280;7885;42.596;23.044;2022-08-24T12:31:11;92774.13;;;34.11;48.21
15568;BME280;7885;42.596;23.044;2022-08-24T12:33:46;92777.06;;;34.39;47.05
15568;BME280;7885;42.596;23.044;2022-08-24T12:36:20;92773.75;;;34.48;45.32
15568;BME280;7885;42.596;23.044;2022-08-24T12:38:52;92764.72;;;34.50;46.21
15568;BME280;7885;42.596;23.044;2022-08-24T12:41:28;92755.69;;;33.76;45.40
15568;BME280;7885;42.596;23.044;2022-08-24T12:44:00;92767.84;;;33.11;48.11
15568;BME280;7885;42.596;23.044;2022-08-24T12:46:29;92773.22;;;32.57;47.78
15568;BME280;7885;42.596;23.044;2022-08-24T12:49:00;92768.34;;;32.12;50.06
15568;BME280;7885;42.596;23.044;2022-08-24T12:51:40;92771.25;;;31.32;51.13
15568;BME280;7885;42.596;23.044;2022-08-24T12:54:27;92757.75;;;30.63;52.39
15568;BME280;7885;42.596;23.044;2022-08-24T12:57:14;92772.81;;;30.36;54.28
15568;BME280;7885;42.596;23.044;2022-08-24T12:59:48;92759.59;;;30.01;56.25
15568;BME280;7885;42.596;23.044;2022-08-24T13:02:29;92770.63;;;29.93;56.36
15568;BME280;7885;42.596;23.044;2022-08-24T13:05:08;92773.41;;;29.99;55.64
15568;BME280;7885;42.596;23.044;2022-08-24T13:07:40;92769.78;;;30.04;57.85
15568;BME280;7885;42.596;23.044;2022-08-24T13:10:15;92764.53;;;30.19;57.52
15568;BME280;7885;42.596;23.044;2022-08-24T13:13:21;92752.44;;;30.30;56.57
15568;BME280;7885;42.596;23.044;2022-08-24T13:15:59;92751.47;;;30.51;57.23
15568;BME280;7885;42.596;23.044;2022-08-24T13:21:46;92763.59;;;31.32;56.53
15568;BME280;7885;42.596;23.044;2022-08-24T13:27:46;92767.31;;;31.78;52.47
15568;BME280;7885;42.596;23.044;2022-08-24T13:30:36;92766.56;;;31.59;52.06
15568;BME280;7885;42.596;23.044;2022-08-24T13:33:07;92766.25;;;31.62;53.06
15568;BME280;7885;42.596;23.044;2022-08-24T13:35:57;92777.69;;;31.08;53.67
15568;BME280;7885;42.596;23.044;2022-08-24T13:38:54;92773.72;;;30.74;54.15
15568;BME280;7885;42.596;23.044;2022-08-24T13:41:46;92780.91;;;30.45;56.20
15568;BME280;7885;42.596;23.044;2022-08-24T13:44:22;92778.53;;;30.25;56.83
15568;BME280;7885;42.596;23.044;2022-08-24T13:46:55;92787.56;;;30.12;58.28
15568;BME280;7885;42.596;23.044;2022-08-24T13:49:39;92791.03;;;29.94;58.12
15568;BME280;7885;42.596;23.044;2022-08-24T13:52:20;92779.59;;;29.45;57.29
15568;BME280;7885;42.596;23.044;2022-08-24T13:55:05;92742.63;;;28.95;57.95
15568;BME280;7885;42.596;23.044;2022-08-24T13:57:38;92782.78;;;29.14;58.48
15568;BME280;7885;42.596;23.044;2022-08-24T14:00:41;92779.78;;;29.01;59.36
15568;BME280;7885;42.596;23.044;2022-08-24T14:06:26;92768.94;;;28.81;61.02
15568;BME280;7885;42.596;23.044;2022-08-24T14:09:04;92764.31;;;28.89;60.25
15568;BME280;7885;42.596;23.044;2022-08-24T14:15:08;92785.03;;;28.41;62.28
15568;BME280;7885;42.596;23.044;2022-08-24T14:17:45;92784.03;;;28.00;63.02